sensor_id;sensor_type;location;lat;lon;timestamp;P1;durP1;ratioP1;P2;durP2;ratioP2
51925;SDS011;37952;51.938;15.480;2022-11-15T00:01:25;25.10;;;18.10;;
51925;SDS011;37952;51.938;15.480;2022-11-15T00:04:28;22.10;;;16.70;;
51925;SDS011;37952;51.938;15.480;2022-11-15T00:07:31;29.20;;;18.40;;
51925;SDS011;37952;51.938;15.480;2022-11-15T00:10:55;26.50;;;20.20;;
51925;SDS011;37952;51.938;15.480;2022-11-15T00:13:58;29.00;;;20.40;;
51925;SDS011;37952;51.938;15.480;2022-11-15T00:17:04;27.50;;;17.40;;
51925;SDS011;37952;51.938;15.480;2022-11-15T00:20:07;22.60;;;17.40;;
51925;SDS011;37952;51.938;15.480;2022-11-15T00:23:11;21.80;;;17.50;;
51925;SDS011;37952;51.938;15.480;2022-11-15T00:26:15;25.50;;;20.70;;
51925;SDS011;37952;51.938;15.480;2022-11-15T00:29:18;22.40;;;18.60;;
51925;SDS011;37952;51.938;15.480;2022-11-15T00:32:21;24.30;;;17.00;;
51925;SDS011;37952;51.938;15.480;2022-11-15T00:35:24;23.60;;;16.20;;
51925;SDS011;37952;51.938;15.480;2022-11-15T00:38:33;22.00;;;16.90;;
51925;SDS011;37952;51.938;15.480;2022-11-15T00:41:38;29.50;;;20.20;;
51925;SDS011;37952;51.938;15.480;2022-11-15T00:44:41;24.40;;;18.30;;
51925;SDS011;37952;51.938;15.480;2022-11-15T00:47:50;30.00;;;18.00;;
51925;SDS011;37952;51.938;15.480;2022-11-15T00:50:54;22.80;;;17.00;;
51925;SDS011;37952;51.938;15.480;2022-11-15T00:57:38;22.90;;;18.10;;
51925;SDS011;37952;51.938;15.480;2022-11-15T01:00:42;22.40;;;16.70;;
51925;SDS011;37952;51.938;15.480;2022-11-15T01:03:45;22.30;;;15.60;;
51925;SDS011;37952;51.938;15.480;2022-11-15T01:06:48;20.40;;;15.80;;
51925;SDS011;37952;51.938;15.480;2022-11-15T01:13:23;17.80;;;15.50;;
51925;SDS011;37952;51.938;15.480;2022-11-15T01:16:25;20.70;;;14.90;;
51925;SDS011;37952;51.938;15.480;2022-11-15T01:19:29;20.20;;;14.90;;
51925;SDS011;37952;51.938;15.480;2022-11-15T01:22:31;19.90;;;14.80;;
51925;SDS011;37952;51.938;15.480;2022-11-15T01:25:35;21.00;;;17.80;;
51925;SDS011;37952;51.938;15.480;2022-11-15T01:28:38;20.90;;;15.10;;
51925;SDS011;37952;51.938;15.480;2022-11-15T01:31:43;16.80;;;13.60;;
51925;SDS011;37952;51.938;15.480;2022-11-15T01:34:46;16.20;;;12.60;;
51925;SDS011;37952;51.938;15.480;2022-11-15T01:37:49;17.40;;;13.60;;
51925;SDS011;37952;51.938;15.480;2022-11-15T01:40:52;17.30;;;15.30;;
51925;SDS011;37952;51.938;15.480;2022-11-15T01:43:56;15.80;;;14.10;;
51925;SDS011;37952;51.938;15.480;2022-11-15T01:47:19;13.90;;;12.40;;
51925;SDS011;37952;51.938;15.480;2022-11-15T01:50:29;15.30;;;12.20;;
51925;SDS011;37952;51.938;15.480;2022-11-15T01:53:35;14.60;;;11.40;;
51925;SDS011;37952;51.938;15.480;2022-11-15T01:56:43;16.90;;;14.40;;
51925;SDS011;37952;51.938;15.480;2022-11-15T01:59:53;16.20;;;14.20;;
51925;SDS011;37952;51.938;15.480;2022-11-15T02:02:57;16.40;;;12.90;;
51925;SDS011;37952;51.938;15.480;2022-11-15T02:06:00;15.80;;;12.00;;
51925;SDS011;37952;51.938;15.480;2022-11-15T02:09:06;14.10;;;12.70;;
51925;SDS011;37952;51.938;15.480;2022-11-15T02:12:09;19.10;;;14.80;;
51925;SDS011;37952;51.938;15.480;2022-11-15T02:15:15;17.80;;;15.20;;
51925;SDS011;37952;51.938;15.480;2022-11-15T02:18:26;15.90;;;12.70;;
51925;SDS011;37952;51.938;15.480;2022-11-15T02:25:20;17.00;;;13.30;;
51925;SDS011;37952;51.938;15.480;2022-11-15T02:38:38;19.60;;;14.10;;
51925;SDS011;37952;51.938;15.480;2022-11-15T02:41:57;20.10;;;15.60;;
51925;SDS011;37952;51.938;15.480;2022-11-15T02:45:07;18.00;;;16.20;;
51925;SDS011;37952;51.938;15.480;2022-11-15T02:48:15;21.20;;;14.80;;
51925;SDS011;37952;51.938;15.480;2022-11-15T02:51:20;17.70;;;14.40;;
51925;SDS011;37952;51.938;15.480;2022-11-15T03:04:50;16.10;;;13.90;;
51925;SDS011;37952;51.938;15.480;2022-11-15T03:11:25;18.70;;;16.30;;
51925;SDS011;37952;51.938;15.480;2022-11-15T03:14:32;19.10;;;14.70;;
51925;SDS011;37952;51.938;15.480;2022-11-15T03:17:41;16.40;;;13.40;;
51925;SDS011;37952;51.938;15.480;2022-11-15T03:20:54;21.90;;;14.90;;
51925;SDS011;37952;51.938;15.480;2022-11-15T03:24:00;20.50;;;16.30;;
51925;SDS011;37952;51.938;15.480;2022-11-15T03:27:08;20.00;;;16.60;;
51925;SDS011;37952;51.938;15.480;2022-11-15T03:30:15;20.80;;;15.00;;
51925;SDS011;37952;51.938;15.480;2022-11-15T03:33:19;16.80;;;14.30;;
51925;SDS011;37952;51.938;15.480;2022-11-15T03:36:24;21.20;;;14.50;;
51925;SDS011;37952;51.938;15.480;2022-11-15T03:39:28;21.50;;;18.00;;
51925;SDS011;37952;51.938;15.480;2022-11-15T03:42:38;19.10;;;14.40;;
51925;SDS011;37952;51.938;15.480;2022-11-15T03:45:54;18.10;;;14.50;;
51925;SDS011;37952;51.938;15.480;2022-11-15T03:49:08;20.50;;;15.30;;
51925;SDS011;37952;51.938;15.480;2022-11-15T03:52:19;19.30;;;15.80;;
51925;SDS011;37952;51.938;15.480;2022-11-15T03:55:23;21.30;;;15.00;;
51925;SDS011;37952;51.938;15.480;2022-11-15T03:58:26;20.10;;;14.70;;
51925;SDS011;37952;51.938;15.480;2022-11-15T04:01:29;19.80;;;14.70;;
51925;SDS011;37952;51.938;15.480;2022-11-15T04:04:32;25.10;;;16.90;;
51925;SDS011;37952;51.938;15.480;2022-11-15T04:07:36;23.10;;;15.30;;
51925;SDS011;37952;51.938;15.480;2022-11-15T04:10:41;17.70;;;14.30;;
51925;SDS011;37952;51.938;15.480;2022-11-15T04:13:44;20.90;;;15.10;;
51925;SDS011;37952;51.938;15.480;2022-11-15T04:16:47;17.50;;;14.50;;
51925;SDS011;37952;51.938;15.480;2022-11-15T04:19:50;17.70;;;15.80;;
51925;SDS011;37952;51.938;15.480;2022-11-15T04:23:19;20.80;;;15.60;;
51925;SDS011;37952;51.938;15.480;2022-11-15T04:26:42;17.10;;;13.90;;
51925;SDS011;37952;51.938;15.480;2022-11-15T04:29:45;22.70;;;15.70;;
51925;SDS011;37952;51.938;15.480;2022-11-15T04:32:49;25.20;;;17.70;;
51925;SDS011;37952;51.938;15.480;2022-11-15T04:35:52;20.80;;;15.60;;
51925;SDS011;37952;51.938;15.480;2022-11-15T04:39:13;16.70;;;14.10;;
51925;SDS011;37952;51.938;15.480;2022-11-15T04:42:16;19.40;;;14.80;;
51925;SDS011;37952;51.938;15.480;2022-11-15T04:45:19;27.90;;;17.40;;
51925;SDS011;37952;51.938;15.480;2022-11-15T04:48:22;20.90;;;16.30;;
51925;SDS011;37952;51.938;15.480;2022-11-15T04:51:25;18.30;;;15.10;;
51925;SDS011;37952;51.938;15.480;2022-11-15T04:54:29;21.10;;;14.90;;
51925;SDS011;37952;51.938;15.480;2022-11-15T04:57:32;27.30;;;18.30;;
51925;SDS011;37952;51.938;15.480;2022-11-15T05:00:35;18.60;;;13.80;;
51925;SDS011;37952;51.938;15.480;2022-11-15T05:03:39;16.10;;;13.80;;
51925;SDS011;37952;51.938;15.480;2022-11-15T05:07:05;17.60;;;14.40;;
51925;SDS011;37952;51.938;15.480;2022-11-15T05:10:08;22.20;;;17.80;;
51925;SDS011;37952;51.938;15.480;2022-11-15T05:13:11;20.30;;;15.70;;
51925;SDS011;37952;51.938;15.480;2022-11-15T05:16:14;21.20;;;16.10;;
51925;SDS011;37952;51.938;15.480;2022-11-15T05:19:17;19.80;;;14.90;;
51925;SDS011;37952;51.938;15.480;2022-11-15T05:22:20;23.40;;;16.80;;
51925;SDS011;37952;51.938;15.480;2022-11-15T05:25:25;16.70;;;14.00;;
51925;SDS011;37952;51.938;15.480;2022-11-15T05:28:28;18.00;;;14.20;;
51925;SDS011;37952;51.938;15.480;2022-11-15T05:31:31;17.50;;;14.70;;
51925;SDS011;37952;51.938;15.480;2022-11-15T05:34:34;17.70;;;15.30;;
51925;SDS011;37952;51.938;15.480;2022-11-15T05:37:37;16.10;;;13.90;;
51925;SDS011;37952;51.938;15.480;2022-11-15T05:40:40;17.90;;;14.60;;
51925;SDS011;37952;51.938;15.480;2022-11-15T05:43:43;18.00;;;15.90;;
51925;SDS011;37952;51.938;15.480;2022-11-15T05:46:49;21.60;;;16.30;;
51925;SDS011;37952;51.938;15.480;2022-11-15T05:49:55;18.70;;;14.30;;
51925;SDS011;37952;51.938;15.480;2022-11-15T05:53:00;16.90;;;14.20;;
51925;SDS011;37952;51.938;15.480;2022-11-15T05:56:06;23.40;;;15.70;;
51925;SDS011;37952;51.938;15.480;2022-11-15T05:59:12;21.80;;;16.00;;
51925;SDS011;37952;51.938;15.480;2022-11-15T06:02:15;20.50;;;14.40;;
51925;SDS011;37952;51.938;15.480;2022-11-15T06:05:18;21.30;;;14.10;;
51925;SDS011;37952;51.938;15.480;2022-11-15T06:08:21;20.80;;;15.30;;
51925;SDS011;37952;51.938;15.480;2022-11-15T06:11:27;17.00;;;15.30;;
51925;SDS011;37952;51.938;15.480;2022-11-15T06:14:30;18.10;;;14.40;;
51925;SDS011;37952;51.938;15.480;2022-11-15T06:17:33;20.60;;;15.40;;
51925;SDS011;37952;51.938;15.480;2022-11-15T06:20:36;18.20;;;14.30;;
51925;SDS011;37952;51.938;15.480;2022-11-15T06:23:39;19.00;;;15.20;;
51925;SDS011;37952;51.938;15.480;2022-11-15T06:26:42;20.60;;;16.90;;
51925;SDS011;37952;51.938;15.480;2022-11-15T06:29:45;19.40;;;14.70;;
51925;SDS011;37952;51.938;15.480;2022-11-15T06:32:47;20.60;;;14.60;;
51925;SDS011;37952;51.938;15.480;2022-11-15T06:35:50;21.50;;;15.30;;
51925;SDS011;37952;51.938;15.480;2022-11-15T06:42:21;17.90;;;14.20;;
51925;SDS011;37952;51.938;15.480;2022-11-15T06:45:26;15.50;;;13.90;;
51925;SDS011;37952;51.938;15.480;2022-11-15T06:48:29;17.10;;;14.70;;
51925;SDS011;37952;51.938;15.480;2022-11-15T06:51:32;19.40;;;16.20;;
51925;SDS011;37952;51.938;15.480;2022-11-15T06:54:35;20.10;;;15.00;;
51925;SDS011;37952;51.938;15.480;2022-11-15T06:57:45;17.20;;;13.40;;
51925;SDS011;37952;51.938;15.480;2022-11-15T07:00:49;21.20;;;14.10;;
51925;SDS011;37952;51.938;15.480;2022-11-15T07:03:52;17.70;;;15.40;;
51925;SDS011;37952;51.938;15.480;2022-11-15T07:06:55;23.80;;;13.80;;
51925;SDS011;37952;51.938;15.480;2022-11-15T07:09:58;15.60;;;12.80;;
51925;SDS011;37952;51.938;15.480;2022-11-15T07:13:01;15.80;;;14.00;;
51925;SDS011;37952;51.938;15.480;2022-11-15T07:16:05;18.90;;;15.50;;
51925;SDS011;37952;51.938;15.480;2022-11-15T07:19:09;17.80;;;14.10;;
51925;SDS011;37952;51.938;15.480;2022-11-15T07:22:12;19.10;;;14.00;;
51925;SDS011;37952;51.938;15.480;2022-11-15T07:25:15;14.60;;;13.00;;
51925;SDS011;37952;51.938;15.480;2022-11-15T07:28:19;16.30;;;13.10;;
51925;SDS011;37952;51.938;15.480;2022-11-15T07:31:22;23.60;;;16.30;;
51925;SDS011;37952;51.938;15.480;2022-11-15T07:34:25;17.90;;;16.00;;
51925;SDS011;37952;51.938;15.480;2022-11-15T07:37:27;19.70;;;13.70;;
51925;SDS011;37952;51.938;15.480;2022-11-15T07:40:31;15.50;;;13.40;;
51925;SDS011;37952;51.938;15.480;2022-11-15T07:43:34;17.60;;;13.80;;
51925;SDS011;37952;51.938;15.480;2022-11-15T07:46:38;21.60;;;15.80;;
51925;SDS011;37952;51.938;15.480;2022-11-15T07:49:40;16.50;;;13.30;;
51925;SDS011;37952;51.938;15.480;2022-11-15T07:52:44;16.10;;;12.30;;
51925;SDS011;37952;51.938;15.480;2022-11-15T07:55:47;17.40;;;14.00;;
51925;SDS011;37952;51.938;15.480;2022-11-15T07:58:50;18.70;;;15.70;;
51925;SDS011;37952;51.938;15.480;2022-11-15T08:01:53;17.90;;;15.50;;
51925;SDS011;37952;51.938;15.480;2022-11-15T08:04:56;16.50;;;13.00;;
51925;SDS011;37952;51.938;15.480;2022-11-15T08:07:59;17.20;;;12.40;;
51925;SDS011;37952;51.938;15.480;2022-11-15T08:11:02;16.70;;;13.60;;
51925;SDS011;37952;51.938;15.480;2022-11-15T08:14:05;19.10;;;15.50;;
51925;SDS011;37952;51.938;15.480;2022-11-15T08:17:08;17.00;;;15.00;;
51925;SDS011;37952;51.938;15.480;2022-11-15T08:20:12;18.40;;;13.50;;
51925;SDS011;37952;51.938;15.480;2022-11-15T08:23:14;16.10;;;12.70;;
51925;SDS011;37952;51.938;15.480;2022-11-15T08:26:17;17.90;;;13.70;;
51925;SDS011;37952;51.938;15.480;2022-11-15T08:29:20;16.60;;;14.70;;
51925;SDS011;37952;51.938;15.480;2022-11-15T08:32:23;21.70;;;16.10;;
51925;SDS011;37952;51.938;15.480;2022-11-15T08:35:27;17.50;;;13.20;;
51925;SDS011;37952;51.938;15.480;2022-11-15T08:38:32;13.90;;;11.90;;
51925;SDS011;37952;51.938;15.480;2022-11-15T08:41:36;16.50;;;13.60;;
51925;SDS011;37952;51.938;15.480;2022-11-15T08:44:40;14.80;;;13.20;;
51925;SDS011;37952;51.938;15.480;2022-11-15T08:47:43;17.20;;;14.20;;
51925;SDS011;37952;51.938;15.480;2022-11-15T08:51:13;16.60;;;11.50;;
51925;SDS011;37952;51.938;15.480;2022-11-15T08:54:16;15.30;;;12.00;;
51925;SDS011;37952;51.938;15.480;2022-11-15T08:57:19;14.20;;;12.80;;
51925;SDS011;37952;51.938;15.480;2022-11-15T09:00:22;22.00;;;14.50;;
51925;SDS011;37952;51.938;15.480;2022-11-15T09:03:25;16.40;;;14.60;;
51925;SDS011;37952;51.938;15.480;2022-11-15T09:06:28;15.00;;;11.50;;
51925;SDS011;37952;51.938;15.480;2022-11-15T09:09:31;16.00;;;11.20;;
51925;SDS011;37952;51.938;15.480;2022-11-15T09:12:34;14.90;;;12.40;;
51925;SDS011;37952;51.938;15.480;2022-11-15T09:15:37;14.50;;;13.00;;
51925;SDS011;37952;51.938;15.480;2022-11-15T09:18:41;18.50;;;14.70;;
51925;SDS011;37952;51.938;15.480;2022-11-15T09:21:44;19.20;;;13.10;;
51925;SDS011;37952;51.938;15.480;2022-11-15T09:24:47;14.40;;;12.20;;
51925;SDS011;37952;51.938;15.480;2022-11-15T09:27:50;12.10;;;10.50;;
51925;SDS011;37952;51.938;15.480;2022-11-15T09:30:57;18.90;;;15.10;;
51925;SDS011;37952;51.938;15.480;2022-11-15T09:34:04;15.50;;;13.20;;
51925;SDS011;37952;51.938;15.480;2022-11-15T09:37:07;12.50;;;10.20;;
51925;SDS011;37952;51.938;15.480;2022-11-15T09:40:13;11.70;;;10.50;;
51925;SDS011;37952;51.938;15.480;2022-11-15T09:43:31;12.70;;;11.20;;
51925;SDS011;37952;51.938;15.480;2022-11-15T09:50:08;15.30;;;13.40;;
51925;SDS011;37952;51.938;15.480;2022-11-15T09:53:32;13.30;;;11.10;;
51925;SDS011;37952;51.938;15.480;2022-11-15T10:00:29;13.60;;;11.40;;
51925;SDS011;37952;51.938;15.480;2022-11-15T10:03:52;16.20;;;12.10;;
51925;SDS011;37952;51.938;15.480;2022-11-15T10:13:33;16.20;;;12.10;;
51925;SDS011;37952;51.938;15.480;2022-11-15T10:23:16;11.60;;;8.80;;
51925;SDS011;37952;51.938;15.480;2022-11-15T10:26:21;12.90;;;10.40;;
51925;SDS011;37952;51.938;15.480;2022-11-15T10:29:26;14.90;;;10.90;;
51925;SDS011;37952;51.938;15.480;2022-11-15T10:32:29;11.40;;;10.40;;
51925;SDS011;37952;51.938;15.480;2022-11-15T10:35:35;16.40;;;8.60;;
51925;SDS011;37952;51.938;15.480;2022-11-15T10:41:50;9.40;;;8.70;;
51925;SDS011;37952;51.938;15.480;2022-11-15T10:44:53;10.00;;;9.00;;
51925;SDS011;37952;51.938;15.480;2022-11-15T10:51:24;9.10;;;8.20;;
51925;SDS011;37952;51.938;15.480;2022-11-15T10:54:37;10.00;;;9.00;;
51925;SDS011;37952;51.938;15.480;2022-11-15T10:57:51;9.80;;;9.10;;
51925;SDS011;37952;51.938;15.480;2022-11-15T11:01:04;11.80;;;10.60;;
51925;SDS011;37952;51.938;15.480;2022-11-15T11:04:12;9.00;;;8.00;;
51925;SDS011;37952;51.938;15.480;2022-11-15T11:07:21;9.10;;;8.00;;
51925;SDS011;37952;51.938;15.480;2022-11-15T11:10:27;11.20;;;10.00;;
51925;SDS011;37952;51.938;15.480;2022-11-15T11:13:50;11.90;;;10.50;;
51925;SDS011;37952;51.938;15.480;2022-11-15T11:20:40;8.40;;;7.70;;
51925;SDS011;37952;51.938;15.480;2022-11-15T11:37:20;6.90;;;6.50;;
51925;SDS011;37952;51.938;15.480;2022-11-15T11:40:37;8.10;;;7.40;;
51925;SDS011;37952;51.938;15.480;2022-11-15T11:47:40;7.70;;;7.10;;
51925;SDS011;37952;51.938;15.480;2022-11-15T11:50:51;6.70;;;5.50;;
51925;SDS011;37952;51.938;15.480;2022-11-15T11:54:11;5.80;;;5.40;;
51925;SDS011;37952;51.938;15.480;2022-11-15T11:57:25;7.80;;;7.10;;
51925;SDS011;37952;51.938;15.480;2022-11-15T12:00:54;8.60;;;7.70;;
51925;SDS011;37952;51.938;15.480;2022-11-15T12:07:33;7.20;;;6.50;;
51925;SDS011;37952;51.938;15.480;2022-11-15T12:10:39;7.60;;;6.90;;
51925;SDS011;37952;51.938;15.480;2022-11-15T12:13:49;8.60;;;7.70;;
51925;SDS011;37952;51.938;15.480;2022-11-15T12:16:56;9.00;;;8.10;;
51925;SDS011;37952;51.938;15.480;2022-11-15T12:20:05;8.80;;;8.10;;
51925;SDS011;37952;51.938;15.480;2022-11-15T12:23:20;7.90;;;6.50;;
51925;SDS011;37952;51.938;15.480;2022-11-15T12:26:37;8.70;;;7.90;;
51925;SDS011;37952;51.938;15.480;2022-11-15T12:29:46;11.10;;;10.00;;
51925;SDS011;37952;51.938;15.480;2022-11-15T12:36:01;19.70;;;12.20;;
51925;SDS011;37952;51.938;15.480;2022-11-15T12:39:07;12.80;;;9.10;;
51925;SDS011;37952;51.938;15.480;2022-11-15T12:45:25;13.60;;;11.40;;
51925;SDS011;37952;51.938;15.480;2022-11-15T12:57:56;13.90;;;10.20;;
51925;SDS011;37952;51.938;15.480;2022-11-15T13:04:51;21.80;;;16.50;;
51925;SDS011;37952;51.938;15.480;2022-11-15T13:07:57;33.70;;;23.90;;
51925;SDS011;37952;51.938;15.480;2022-11-15T13:11:27;35.60;;;25.20;;
51925;SDS011;37952;51.938;15.480;2022-11-15T13:14:46;23.40;;;17.60;;
51925;SDS011;37952;51.938;15.480;2022-11-15T13:17:53;22.40;;;18.50;;
51925;SDS011;37952;51.938;15.480;2022-11-15T13:20:58;29.30;;;20.70;;
51925;SDS011;37952;51.938;15.480;2022-11-15T13:24:23;28.50;;;21.20;;
51925;SDS011;37952;51.938;15.480;2022-11-15T13:27:26;32.70;;;21.80;;
51925;SDS011;37952;51.938;15.480;2022-11-15T13:30:30;25.20;;;16.90;;
51925;SDS011;37952;51.938;15.480;2022-11-15T13:33:34;23.00;;;17.10;;
51925;SDS011;37952;51.938;15.480;2022-11-15T13:36:39;27.00;;;19.40;;
51925;SDS011;37952;51.938;15.480;2022-11-15T13:39:43;29.70;;;21.90;;
51925;SDS011;37952;51.938;15.480;2022-11-15T13:42:46;29.90;;;23.10;;
51925;SDS011;37952;51.938;15.480;2022-11-15T13:49:22;27.10;;;17.50;;
51925;SDS011;37952;51.938;15.480;2022-11-15T14:00:45;28.10;;;20.00;;
51925;SDS011;37952;51.938;15.480;2022-11-15T14:03:59;18.90;;;16.10;;
51925;SDS011;37952;51.938;15.480;2022-11-15T14:07:03;12.50;;;10.60;;
51925;SDS011;37952;51.938;15.480;2022-11-15T14:13:31;12.60;;;11.50;;
51925;SDS011;37952;51.938;15.480;2022-11-15T14:16:41;16.20;;;14.50;;
51925;SDS011;37952;51.938;15.480;2022-11-15T14:19:48;19.20;;;13.50;;
51925;SDS011;37952;51.938;15.480;2022-11-15T14:22:55;12.40;;;11.10;;
51925;SDS011;37952;51.938;15.480;2022-11-15T14:25:59;11.30;;;10.20;;
51925;SDS011;37952;51.938;15.480;2022-11-15T14:32:43;14.60;;;13.10;;
51925;SDS011;37952;51.938;15.480;2022-11-15T14:35:53;17.50;;;14.50;;
51925;SDS011;37952;51.938;15.480;2022-11-15T14:38:58;18.50;;;15.70;;
51925;SDS011;37952;51.938;15.480;2022-11-15T14:42:01;14.30;;;12.20;;
51925;SDS011;37952;51.938;15.480;2022-11-15T14:45:09;14.20;;;12.70;;
51925;SDS011;37952;51.938;15.480;2022-11-15T14:48:17;17.60;;;13.80;;
51925;SDS011;37952;51.938;15.480;2022-11-15T14:51:20;19.00;;;16.00;;
51925;SDS011;37952;51.938;15.480;2022-11-15T14:54:23;21.30;;;17.40;;
51925;SDS011;37952;51.938;15.480;2022-11-15T14:57:26;29.40;;;18.40;;
51925;SDS011;37952;51.938;15.480;2022-11-15T15:00:30;19.50;;;13.50;;
51925;SDS011;37952;51.938;15.480;2022-11-15T15:03:36;18.00;;;13.30;;
51925;SDS011;37952;51.938;15.480;2022-11-15T15:06:39;18.10;;;15.20;;
51925;SDS011;37952;51.938;15.480;2022-11-15T15:09:43;23.40;;;18.00;;
51925;SDS011;37952;51.938;15.480;2022-11-15T15:12:46;24.90;;;18.70;;
51925;SDS011;37952;51.938;15.480;2022-11-15T15:15:51;24.50;;;20.20;;
51925;SDS011;37952;51.938;15.480;2022-11-15T15:18:55;20.50;;;14.90;;
51925;SDS011;37952;51.938;15.480;2022-11-15T15:21:58;16.50;;;14.00;;
51925;SDS011;37952;51.938;15.480;2022-11-15T15:25:00;21.90;;;17.30;;
51925;SDS011;37952;51.938;15.480;2022-11-15T15:28:03;21.20;;;17.50;;
51925;SDS011;37952;51.938;15.480;2022-11-15T15:31:07;27.90;;;21.50;;
51925;SDS011;37952;51.938;15.480;2022-11-15T15:34:13;31.20;;;20.60;;
51925;SDS011;37952;51.938;15.480;2022-11-15T15:37:21;25.20;;;16.90;;
51925;SDS011;37952;51.938;15.480;2022-11-15T15:40:30;19.90;;;15.40;;
51925;SDS011;37952;51.938;15.480;2022-11-15T15:43:35;20.60;;;16.80;;
51925;SDS011;37952;51.938;15.480;2022-11-15T15:46:38;21.30;;;18.10;;
51925;SDS011;37952;51.938;15.480;2022-11-15T15:49:41;25.20;;;19.80;;
51925;SDS011;37952;51.938;15.480;2022-11-15T15:52:44;25.50;;;20.50;;
51925;SDS011;37952;51.938;15.480;2022-11-15T15:55:47;22.80;;;15.70;;
51925;SDS011;37952;51.938;15.480;2022-11-15T15:58:50;23.10;;;16.30;;
51925;SDS011;37952;51.938;15.480;2022-11-15T16:01:55;23.70;;;17.10;;
51925;SDS011;37952;51.938;15.480;2022-11-15T16:04:58;27.40;;;19.90;;
51925;SDS011;37952;51.938;15.480;2022-11-15T16:08:01;28.90;;;21.00;;
51925;SDS011;37952;51.938;15.480;2022-11-15T16:11:05;25.90;;;21.40;;
51925;SDS011;37952;51.938;15.480;2022-11-15T16:14:08;22.80;;;16.30;;
51925;SDS011;37952;51.938;15.480;2022-11-15T16:17:15;24.40;;;15.30;;
51925;SDS011;37952;51.938;15.480;2022-11-15T16:23:33;23.30;;;18.30;;
51925;SDS011;37952;51.938;15.480;2022-11-15T16:26:38;24.10;;;19.70;;
51925;SDS011;37952;51.938;15.480;2022-11-15T16:29:41;31.50;;;21.00;;
51925;SDS011;37952;51.938;15.480;2022-11-15T16:32:44;25.50;;;17.10;;
51925;SDS011;37952;51.938;15.480;2022-11-15T16:35:47;23.20;;;15.40;;
51925;SDS011;37952;51.938;15.480;2022-11-15T16:38:52;21.40;;;16.30;;
51925;SDS011;37952;51.938;15.480;2022-11-15T16:41:58;22.30;;;18.90;;
51925;SDS011;37952;51.938;15.480;2022-11-15T16:45:04;28.30;;;20.60;;
51925;SDS011;37952;51.938;15.480;2022-11-15T16:48:10;25.60;;;20.00;;
51925;SDS011;37952;51.938;15.480;2022-11-15T16:51:27;18.20;;;14.80;;
51925;SDS011;37952;51.938;15.480;2022-11-15T16:54:30;18.20;;;14.60;;
51925;SDS011;37952;51.938;15.480;2022-11-15T16:57:33;17.10;;;15.30;;
51925;SDS011;37952;51.938;15.480;2022-11-15T17:00:38;25.70;;;16.20;;
51925;SDS011;37952;51.938;15.480;2022-11-15T17:03:42;20.70;;;17.60;;
51925;SDS011;37952;51.938;15.480;2022-11-15T17:10:22;19.20;;;14.60;;
51925;SDS011;37952;51.938;15.480;2022-11-15T17:13:27;22.70;;;16.70;;
51925;SDS011;37952;51.938;15.480;2022-11-15T17:16:30;26.50;;;18.40;;
51925;SDS011;37952;51.938;15.480;2022-11-15T17:19:33;30.70;;;20.30;;
51925;SDS011;37952;51.938;15.480;2022-11-15T17:22:36;22.70;;;15.80;;
51925;SDS011;37952;51.938;15.480;2022-11-15T17:25:39;25.40;;;17.00;;
51925;SDS011;37952;51.938;15.480;2022-11-15T17:28:42;25.30;;;18.90;;
51925;SDS011;37952;51.938;15.480;2022-11-15T17:31:45;29.60;;;22.40;;
51925;SDS011;37952;51.938;15.480;2022-11-15T17:34:48;33.80;;;25.30;;
51925;SDS011;37952;51.938;15.480;2022-11-15T17:37:51;38.70;;;27.40;;
51925;SDS011;37952;51.938;15.480;2022-11-15T17:41:01;33.80;;;22.10;;
51925;SDS011;37952;51.938;15.480;2022-11-15T17:44:06;31.60;;;21.30;;
51925;SDS011;37952;51.938;15.480;2022-11-15T17:47:09;37.20;;;25.50;;
51925;SDS011;37952;51.938;15.480;2022-11-15T17:50:12;41.90;;;28.90;;
51925;SDS011;37952;51.938;15.480;2022-11-15T17:53:16;52.40;;;33.90;;
51925;SDS011;37952;51.938;15.480;2022-11-15T17:56:20;57.40;;;35.40;;
51925;SDS011;37952;51.938;15.480;2022-11-15T17:59:29;39.10;;;24.40;;
51925;SDS011;37952;51.938;15.480;2022-11-15T18:02:41;38.10;;;23.60;;
51925;SDS011;37952;51.938;15.480;2022-11-15T18:05:44;35.20;;;24.70;;
51925;SDS011;37952;51.938;15.480;2022-11-15T18:08:55;46.60;;;28.10;;
51925;SDS011;37952;51.938;15.480;2022-11-15T18:12:02;39.60;;;29.30;;
51925;SDS011;37952;51.938;15.480;2022-11-15T18:15:09;37.70;;;27.80;;
51925;SDS011;37952;51.938;15.480;2022-11-15T18:18:16;36.50;;;23.40;;
51925;SDS011;37952;51.938;15.480;2022-11-15T18:21:26;35.90;;;23.20;;
51925;SDS011;37952;51.938;15.480;2022-11-15T18:24:44;33.70;;;22.90;;
51925;SDS011;37952;51.938;15.480;2022-11-15T18:27:57;35.40;;;25.90;;
51925;SDS011;37952;51.938;15.480;2022-11-15T18:31:12;43.60;;;29.10;;
51925;SDS011;37952;51.938;15.480;2022-11-15T18:38:10;32.90;;;23.20;;
51925;SDS011;37952;51.938;15.480;2022-11-15T20:06:54;50.90;;;36.30;;
51925;SDS011;37952;51.938;15.480;2022-11-15T20:10:11;48.80;;;35.40;;
51925;SDS011;37952;51.938;15.480;2022-11-15T20:13:25;48.50;;;34.20;;
51925;SDS011;37952;51.938;15.480;2022-11-15T20:16:35;45.50;;;27.20;;
51925;SDS011;37952;51.938;15.480;2022-11-15T20:19:47;39.00;;;25.70;;
51925;SDS011;37952;51.938;15.480;2022-11-15T20:23:06;37.00;;;27.50;;
51925;SDS011;37952;51.938;15.480;2022-11-15T20:26:44;44.80;;;31.30;;
51925;SDS011;37952;51.938;15.480;2022-11-15T20:30:15;51.20;;;34.40;;
51925;SDS011;37952;51.938;15.480;2022-11-15T20:34:22;46.80;;;32.60;;
51925;SDS011;37952;51.938;15.480;2022-11-15T20:37:55;44.70;;;27.00;;
51925;SDS011;37952;51.938;15.480;2022-11-15T20:41:02;42.30;;;28.00;;
51925;SDS011;37952;51.938;15.480;2022-11-15T20:44:05;44.10;;;31.90;;
51925;SDS011;37952;51.938;15.480;2022-11-15T20:47:08;49.90;;;35.90;;
51925;SDS011;37952;51.938;15.480;2022-11-15T20:50:13;54.20;;;36.10;;
51925;SDS011;37952;51.938;15.480;2022-11-15T20:53:36;51.00;;;29.40;;
51925;SDS011;37952;51.938;15.480;2022-11-15T20:56:39;39.90;;;26.20;;
51925;SDS011;37952;51.938;15.480;2022-11-15T20:59:42;42.50;;;28.60;;
51925;SDS011;37952;51.938;15.480;2022-11-15T21:02:49;43.70;;;30.80;;
51925;SDS011;37952;51.938;15.480;2022-11-15T21:05:54;53.10;;;34.40;;
51925;SDS011;37952;51.938;15.480;2022-11-15T21:08:57;56.70;;;37.80;;
51925;SDS011;37952;51.938;15.480;2022-11-15T21:12:22;53.10;;;31.30;;
51925;SDS011;37952;51.938;15.480;2022-11-15T21:15:25;45.60;;;30.50;;
51925;SDS011;37952;51.938;15.480;2022-11-15T21:18:28;51.10;;;35.10;;
51925;SDS011;37952;51.938;15.480;2022-11-15T21:21:38;55.00;;;37.00;;
51925;SDS011;37952;51.938;15.480;2022-11-15T21:24:42;56.60;;;39.00;;
51925;SDS011;37952;51.938;15.480;2022-11-15T21:27:52;48.40;;;29.70;;
51925;SDS011;37952;51.938;15.480;2022-11-15T21:31:03;47.10;;;28.70;;
51925;SDS011;37952;51.938;15.480;2022-11-15T21:34:13;47.90;;;30.10;;
51925;SDS011;37952;51.938;15.480;2022-11-15T21:37:16;50.70;;;33.10;;
51925;SDS011;37952;51.938;15.480;2022-11-15T21:40:23;54.20;;;35.70;;
51925;SDS011;37952;51.938;15.480;2022-11-15T21:43:27;52.20;;;34.50;;